createdAt,value
2023-05-09T00:00:55.930Z,72.67
2023-05-09T00:01:55.936Z,72.67
2023-05-09T00:02:55.948Z,72.67
2023-05-09T00:03:55.917Z,72.67
2023-05-09T00:04:55.933Z,72.67
2023-05-09T00:05:55.867Z,72.67
2023-05-09T00:06:55.981Z,72.67
2023-05-09T00:07:55.885Z,72.67
2023-05-09T00:08:55.892Z,72.67
2023-05-09T00:09:55.828Z,72.67
2023-05-09T00:10:55.815Z,72.67
2023-05-09T00:11:55.803Z,72.67
2023-05-09T00:12:55.873Z,72.67
2023-05-09T00:13:55.796Z,72.67
2023-05-09T00:14:55.772Z,72.67
2023-05-09T00:15:55.761Z,72.67
2023-05-09T00:16:55.890Z,72.67
2023-05-09T00:17:55.793Z,72.67
2023-05-09T00:18:55.732Z,72.67
2023-05-09T00:19:55.787Z,72.67
2023-05-09T00:20:55.712Z,72.67
2023-05-09T00:21:55.695Z,72.67
2023-05-09T00:22:55.812Z,72.67
2023-05-09T00:23:55.679Z,72.67
2023-05-09T00:24:55.737Z,72.67
2023-05-09T00:25:55.667Z,72.67
2023-05-09T00:26:55.645Z,72.67
2023-05-09T00:27:55.636Z,72.67
2023-05-09T00:28:55.666Z,72.67
2023-05-09T00:29:55.617Z,72.57
2023-05-09T00:30:55.601Z,72.67
2023-05-09T00:31:55.632Z,72.57
2023-05-09T00:32:55.728Z,72.57
2023-05-09T00:33:55.573Z,72.67
2023-05-09T00:34:55.557Z,72.57
2023-05-09T00:35:55.606Z,72.57
2023-05-09T00:36:55.537Z,72.57
2023-05-09T00:37:55.529Z,72.57
2023-05-09T00:38:55.640Z,72.57
2023-05-09T00:39:55.523Z,72.67
2023-05-09T00:40:55.559Z,72.67
2023-05-09T00:41:55.486Z,72.57
2023-05-09T00:42:55.475Z,72.57
2023-05-09T00:43:55.465Z,72.57
2023-05-09T00:44:55.487Z,72.67
2023-05-09T00:45:55.451Z,72.57
2023-05-09T00:46:55.432Z,72.57
2023-05-09T00:47:55.464Z,72.57
2023-05-09T00:48:55.411Z,72.67
2023-05-09T00:49:55.429Z,72.57
2023-05-09T00:50:55.394Z,72.67
2023-05-09T00:51:55.377Z,72.67
2023-05-09T00:52:55.371Z,72.57
2023-05-09T00:53:55.392Z,72.67
2023-05-09T00:54:55.472Z,72.67
2023-05-09T00:55:55.335Z,72.67
2023-05-09T00:56:55.325Z,72.67
2023-05-09T00:57:55.314Z,72.67
2023-05-09T00:58:55.332Z,72.67
2023-05-09T00:59:55.292Z,72.67
2023-05-09T01:00:55.314Z,72.67
2023-05-09T01:01:55.304Z,72.67
2023-05-09T01:02:55.357Z,72.67
2023-05-09T01:03:55.250Z,72.67
2023-05-09T01:04:55.240Z,72.67
2023-05-09T02:18:57.059Z,72.57
2023-05-09T02:19:56.916Z,72.57
2023-05-09T02:20:56.966Z,72.47
2023-05-09T02:21:56.884Z,72.47
2023-05-09T02:22:56.875Z,72.47
2023-05-09T02:23:56.884Z,72.47
2023-05-09T02:24:56.853Z,72.47
2023-05-09T02:25:56.844Z,72.47
2023-05-09T02:26:56.832Z,72.47
2023-05-09T02:27:56.816Z,72.47
2023-05-09T02:28:56.830Z,72.47
2023-05-09T02:29:56.798Z,72.47
2023-05-09T02:30:56.794Z,72.47
2023-05-09T02:31:56.822Z,72.47
2023-05-09T02:32:56.936Z,72.57
2023-05-09T02:33:56.775Z,72.57
2023-05-09T02:34:56.905Z,72.57
2023-05-09T02:35:56.732Z,72.57
2023-05-09T02:36:56.729Z,72.57
2023-05-09T02:37:56.710Z,72.57
2023-05-09T02:38:56.721Z,72.57
2023-05-09T02:39:56.696Z,72.57
2023-05-09T02:40:56.725Z,72.57
2023-05-09T02:41:56.668Z,72.57
2023-05-09T02:42:56.663Z,72.57
2023-05-09T02:43:56.669Z,72.57
2023-05-09T02:44:56.666Z,72.57
2023-05-09T02:45:56.703Z,72.57
2023-05-09T02:46:56.648Z,72.57
2023-05-09T02:47:56.654Z,72.57
2023-05-09T02:48:56.598Z,72.57
2023-05-09T02:49:56.606Z,72.57
2023-05-09T02:50:56.708Z,72.57
2023-05-09T02:51:56.564Z,72.57
2023-05-09T02:52:56.553Z,72.57
2023-05-09T02:53:56.547Z,72.57
2023-05-09T02:54:56.530Z,72.57
2023-05-09T02:55:56.545Z,72.47
2023-05-09T02:56:56.527Z,72.47
2023-05-09T02:58:09.147Z,72.57
2023-05-09T02:58:57.488Z,72.47
2023-05-09T02:59:56.488Z,72.47
2023-05-09T03:00:56.484Z,72.47
2023-05-09T03:01:56.580Z,72.47
2023-05-09T03:02:56.505Z,72.47
2023-05-09T03:03:56.620Z,72.47
2023-05-09T03:04:56.440Z,72.47
2023-05-09T03:05:56.417Z,72.47
2023-05-09T03:06:56.529Z,72.47
2023-05-09T03:07:56.398Z,72.47
2023-05-09T03:08:56.379Z,72.47
2023-05-09T03:09:56.393Z,72.47
2023-05-09T03:10:56.378Z,72.47
2023-05-09T03:11:56.358Z,72.47
2023-05-09T03:12:56.364Z,72.47
2023-05-09T03:13:56.329Z,72.47
2023-05-09T03:14:56.315Z,72.47
2023-05-09T03:15:56.368Z,72.47
2023-05-09T03:16:56.294Z,72.47
2023-05-09T03:17:56.343Z,72.47
2023-05-09T03:18:56.280Z,72.47
2023-05-09T03:19:56.264Z,72.47
2023-05-09T03:20:56.284Z,72.47
2023-05-09T03:21:56.241Z,72.47
2023-05-09T03:22:56.395Z,72.57
2023-05-09T03:23:56.221Z,72.47
2023-05-09T03:24:56.215Z,72.47
2023-05-09T03:25:56.200Z,72.57
2023-05-09T03:26:56.209Z,72.47
2023-05-09T03:27:56.196Z,72.47
2023-05-09T03:28:56.180Z,72.47
2023-05-09T03:29:56.157Z,72.47
2023-05-09T03:30:56.148Z,72.47
2023-05-09T03:31:56.188Z,72.47
2023-05-09T03:32:56.179Z,72.47
2023-05-09T03:33:56.115Z,72.57
2023-05-09T03:34:56.107Z,72.47
2023-05-09T03:35:56.104Z,72.47
2023-05-09T03:36:56.105Z,72.57
2023-05-09T03:37:56.093Z,72.47
2023-05-09T03:38:56.187Z,72.47
2023-05-09T03:39:56.071Z,72.47
2023-05-09T03:40:56.053Z,72.47
2023-05-09T03:41:56.040Z,72.47
2023-05-09T03:42:56.058Z,72.57
2023-05-09T03:43:56.010Z,72.57
2023-05-09T03:44:56.009Z,72.47
2023-05-09T03:45:55.995Z,72.47
2023-05-09T03:46:56.047Z,72.47
2023-05-09T03:47:56.008Z,72.47
2023-05-09T03:48:55.958Z,72.47
2023-05-09T03:49:55.974Z,72.47
2023-05-09T03:50:55.945Z,72.47
2023-05-09T03:51:55.934Z,72.47
2023-05-09T03:52:55.940Z,72.47
2023-05-09T03:53:55.907Z,72.47
2023-05-09T03:54:56.018Z,72.47
2023-05-09T03:55:55.908Z,72.47
2023-05-09T03:56:55.870Z,72.47
2023-05-09T03:57:55.872Z,72.47
2023-05-09T03:58:55.854Z,72.47
2023-05-09T03:59:55.846Z,72.47
2023-05-09T04:00:55.850Z,72.47
2023-05-09T04:01:55.896Z,72.47
2023-05-09T04:02:55.905Z,72.47
2023-05-09T04:03:55.810Z,72.47
2023-05-09T04:04:55.792Z,72.47
2023-05-09T04:05:55.802Z,72.47
2023-05-09T04:06:55.766Z,72.47
2023-05-09T04:07:55.757Z,72.47
2023-05-09T04:08:55.746Z,72.47
2023-05-09T04:09:55.734Z,72.47
2023-05-09T04:10:55.878Z,72.47
2023-05-09T04:11:55.729Z,72.47
2023-05-09T04:12:55.736Z,72.47
2023-05-09T04:13:55.720Z,72.47
2023-05-09T04:14:55.686Z,72.47
2023-05-09T04:15:55.693Z,72.47
2023-05-09T04:16:55.749Z,72.47
2023-05-09T04:17:55.742Z,72.47
2023-05-09T04:18:55.668Z,72.47
2023-05-09T04:19:55.649Z,72.47
2023-05-09T04:20:55.622Z,72.47
2023-05-09T04:21:55.625Z,72.47
2023-05-09T04:22:55.622Z,72.47
2023-05-09T04:23:55.590Z,72.47
2023-05-09T04:24:55.579Z,72.47
2023-05-09T04:25:55.569Z,72.47
2023-05-09T04:26:55.683Z,72.47
2023-05-09T04:27:55.544Z,72.47
2023-05-09T04:28:55.562Z,72.47
2023-05-09T04:29:55.526Z,72.47
2023-05-09T04:30:55.617Z,72.47
2023-05-09T04:31:55.806Z,72.47
2023-05-09T04:32:55.563Z,72.47
2023-05-09T04:33:55.495Z,72.47
2023-05-09T04:34:55.471Z,72.47
2023-05-09T04:35:55.478Z,72.47
2023-05-09T04:36:55.454Z,72.47
2023-05-09T04:37:55.437Z,72.47
2023-05-09T04:38:55.439Z,72.47
2023-05-09T04:39:55.416Z,72.47
2023-05-09T04:40:55.428Z,72.47
2023-05-09T04:41:55.417Z,72.47
2023-05-09T04:42:55.510Z,72.47
2023-05-09T04:43:55.380Z,72.47
2023-05-09T04:44:55.371Z,72.47
2023-05-09T04:45:55.401Z,72.47
2023-05-09T04:46:55.370Z,72.37
2023-05-09T04:47:55.365Z,72.37
2023-05-09T04:48:55.320Z,72.37
2023-05-09T04:49:55.316Z,72.37
2023-05-09T04:50:55.296Z,72.47
2023-05-09T04:51:55.292Z,72.47
2023-05-09T04:52:55.307Z,72.37
2023-05-09T04:53:55.269Z,72.47
2023-05-09T04:54:55.258Z,72.47
2023-05-09T04:55:55.247Z,72.47
2023-05-09T04:57:00.413Z,72.47
2023-05-09T04:57:56.227Z,72.47
2023-05-09T04:58:55.351Z,72.47
2023-05-09T04:59:55.204Z,72.47
2023-05-09T05:00:55.208Z,72.47
2023-05-09T05:01:55.276Z,72.47
2023-05-09T05:02:55.195Z,72.37
2023-05-09T05:03:55.161Z,72.47
2023-05-09T05:05:06.297Z,72.37
2023-05-09T05:05:56.188Z,72.37
2023-05-09T05:06:55.128Z,72.37
2023-05-09T05:07:55.128Z,72.47
2023-05-09T05:08:55.103Z,72.47
2023-05-09T05:09:55.115Z,72.47
2023-05-09T05:10:55.130Z,72.47
2023-05-09T05:12:01.744Z,72.47
2023-05-09T05:12:56.081Z,72.47
2023-05-09T05:13:55.054Z,72.47
2023-05-09T05:14:55.158Z,72.47
2023-05-09T05:15:55.076Z,72.47
2023-05-09T05:16:55.021Z,72.47
2023-05-09T05:17:55.072Z,72.47
2023-05-09T05:18:55.002Z,72.47
2023-05-09T05:19:54.989Z,72.37
2023-05-09T05:20:55.000Z,72.47
2023-05-09T05:21:54.965Z,72.47
2023-05-09T05:22:55.019Z,72.47
2023-05-09T05:23:54.958Z,72.37
2023-05-09T05:24:54.938Z,72.47
2023-05-09T05:25:54.923Z,72.47
2023-05-09T05:26:54.915Z,72.47
2023-05-09T05:27:54.921Z,72.47
2023-05-09T05:28:54.897Z,72.47
2023-05-09T05:29:54.890Z,72.47
2023-05-09T05:30:55.003Z,72.37
2023-05-09T05:31:54.886Z,72.37
2023-05-09T05:32:54.948Z,72.37
2023-05-09T05:33:54.837Z,72.47
2023-05-09T05:34:54.827Z,72.37
2023-05-09T05:35:54.816Z,72.37
2023-05-09T05:36:54.819Z,72.37
2023-05-09T05:37:54.820Z,72.37
2023-05-09T05:38:54.784Z,72.37
2023-05-09T05:39:54.776Z,72.37
2023-05-09T05:40:54.772Z,72.37
2023-05-09T05:41:54.753Z,72.37
2023-05-09T05:42:54.771Z,72.37
2023-05-09T05:43:54.728Z,72.37
2023-05-09T05:44:54.721Z,72.37
2023-05-09T05:45:54.775Z,72.37
2023-05-09T05:46:54.815Z,72.37
2023-05-09T05:47:54.755Z,72.37
2023-05-09T05:48:54.676Z,72.37
2023-05-09T05:49:54.680Z,72.37
2023-05-09T05:50:54.656Z,72.37
2023-05-09T05:51:54.644Z,72.37
2023-05-09T05:52:54.630Z,72.37
2023-05-09T05:53:54.639Z,72.37
2023-05-09T05:54:54.607Z,72.37
2023-05-09T05:55:54.599Z,72.37
2023-05-09T05:56:54.595Z,72.37
2023-05-09T05:57:54.576Z,72.37
2023-05-09T05:58:54.586Z,72.37
2023-05-09T05:59:54.555Z,72.37
2023-05-09T06:00:54.545Z,72.37
2023-05-09T06:01:54.612Z,72.37
2023-05-09T06:02:54.738Z,72.37
2023-05-09T06:03:54.665Z,72.27
2023-05-09T06:04:56.056Z,72.27
2023-05-09T06:05:54.493Z,72.37
2023-05-09T06:06:54.483Z,72.27
2023-05-09T06:07:54.497Z,72.37
2023-05-09T06:08:54.457Z,72.37
2023-05-09T06:09:54.446Z,72.27
2023-05-09T06:10:54.451Z,72.37
2023-05-09T06:11:54.432Z,72.37
2023-05-09T06:12:54.468Z,72.27
2023-05-09T06:13:54.402Z,72.27
2023-05-09T06:14:54.395Z,72.37
2023-05-09T06:15:55.042Z,72.37
2023-05-09T06:16:54.397Z,72.27
2023-05-09T06:17:54.402Z,72.27
2023-05-09T06:18:56.161Z,72.27
2023-05-09T06:19:54.338Z,72.27
2023-05-09T06:20:54.326Z,72.27
2023-05-09T06:21:54.320Z,72.37
2023-05-09T06:22:54.342Z,72.27
2023-05-09T06:24:54.281Z,72.27
2023-05-09T06:25:54.298Z,72.27
2023-05-09T06:26:54.271Z,72.27
2023-05-09T06:27:54.277Z,72.27
2023-05-09T06:28:54.258Z,72.27
2023-05-09T06:29:54.239Z,72.27
2023-05-09T06:30:54.233Z,72.27
2023-05-09T06:31:54.302Z,72.27
2023-05-09T06:32:54.263Z,72.27
2023-05-09T06:33:54.208Z,72.27
2023-05-09T06:34:54.300Z,72.27
2023-05-09T06:35:54.169Z,72.27
2023-05-09T06:36:54.160Z,72.27
2023-05-09T06:37:54.175Z,72.27
2023-05-09T06:38:54.132Z,72.27
2023-05-09T06:39:54.176Z,72.27
2023-05-09T06:40:54.115Z,72.27
2023-05-09T06:41:54.103Z,72.27
2023-05-09T06:42:54.094Z,72.27
2023-05-09T06:43:54.092Z,72.27
2023-05-09T06:44:54.121Z,72.17
2023-05-09T06:45:54.094Z,72.27
2023-05-09T06:46:54.053Z,72.17
2023-05-09T06:47:54.158Z,72.17
2023-05-09T06:48:54.030Z,72.27
2023-05-09T06:49:54.044Z,72.27
2023-05-09T06:50:54.152Z,72.37
2023-05-09T06:51:54.019Z,72.37
2023-05-09T06:52:53.988Z,72.37
2023-05-09T06:53:53.982Z,72.27
2023-05-09T06:54:54.008Z,72.27
2023-05-09T06:55:53.969Z,72.27
2023-05-09T06:56:53.969Z,72.27
2023-05-09T06:57:53.935Z,72.27
2023-05-09T06:58:53.938Z,72.27
2023-05-09T06:59:53.924Z,72.27
2023-05-09T07:00:53.902Z,72.27
2023-05-09T07:01:53.951Z,72.27
2023-05-09T07:02:53.916Z,72.27
2023-05-09T07:03:53.910Z,72.27
2023-05-09T07:04:53.914Z,72.37
2023-05-09T07:05:53.849Z,72.37
2023-05-09T07:06:53.980Z,72.37
2023-05-09T07:07:53.828Z,72.37
2023-05-09T07:08:53.838Z,72.37
2023-05-09T07:10:00.619Z,72.37
2023-05-09T07:10:54.823Z,72.37
2023-05-09T07:11:53.787Z,72.37
2023-05-09T07:12:53.815Z,72.47
2023-05-09T07:13:53.775Z,72.47
2023-05-09T07:14:53.754Z,72.47
2023-05-09T07:15:53.795Z,72.47
2023-05-09T07:16:56.539Z,72.47
2023-05-09T07:17:54.801Z,72.47
2023-05-09T07:18:53.726Z,72.47
2023-05-09T07:19:53.721Z,72.47
2023-05-09T07:20:53.705Z,72.47
2023-05-09T07:21:53.690Z,72.47
2023-05-09T07:22:53.725Z,72.47
2023-05-09T07:23:53.662Z,72.47
2023-05-09T07:24:53.666Z,72.47
2023-05-09T07:25:53.649Z,72.47
2023-05-09T07:26:53.639Z,72.47
2023-05-09T07:27:53.642Z,72.37
2023-05-09T07:28:53.606Z,72.37
2023-05-09T07:29:53.607Z,72.47
2023-05-09T07:30:53.640Z,72.47
2023-05-09T07:31:53.704Z,72.47
2023-05-09T07:32:53.599Z,72.37
2023-05-09T07:33:53.554Z,72.37
2023-05-09T07:34:53.569Z,72.37
2023-05-09T07:35:53.532Z,72.47
2023-05-09T07:36:53.603Z,72.47
2023-05-09T07:37:53.507Z,72.47
2023-05-09T07:38:53.635Z,72.37
2023-05-09T07:39:53.488Z,72.37
2023-05-09T07:40:53.475Z,72.37
2023-05-09T07:41:53.483Z,72.37
2023-05-09T07:42:53.467Z,72.37
2023-05-09T07:43:53.457Z,72.37
2023-05-09T07:44:53.428Z,72.47
2023-05-09T07:45:53.538Z,72.47
2023-05-09T07:46:53.438Z,72.37
2023-05-09T07:47:53.471Z,72.37
2023-05-09T07:48:53.411Z,72.47
2023-05-09T07:49:53.434Z,72.47
2023-05-09T07:50:53.366Z,72.47
2023-05-09T07:51:53.355Z,72.47
2023-05-09T07:52:53.344Z,72.47
2023-05-09T07:53:53.332Z,72.37
2023-05-09T07:54:53.454Z,72.37
2023-05-09T07:55:53.332Z,72.47
2023-05-09T07:56:53.300Z,72.47
2023-05-09T07:57:53.305Z,72.57
2023-05-09T07:58:55.594Z,72.57
2023-05-09T07:59:53.270Z,72.67
2023-05-09T08:00:53.260Z,72.67
2023-05-09T08:01:53.317Z,72.67
2023-05-09T08:02:53.427Z,72.67
2023-05-09T08:03:53.404Z,72.77
2023-05-09T08:04:53.215Z,72.77
2023-05-09T08:05:53.204Z,72.77
2023-05-09T08:06:53.221Z,72.77
2023-05-09T08:07:53.213Z,72.77
2023-05-09T08:08:53.171Z,72.67
2023-05-09T08:09:53.166Z,72.67
2023-05-09T08:10:53.212Z,72.67
2023-05-09T08:11:53.171Z,72.57
2023-05-09T08:12:53.170Z,72.57
2023-05-09T08:13:53.146Z,72.57
2023-05-09T08:14:53.109Z,72.57
2023-05-09T08:15:53.134Z,72.57
2023-05-09T08:16:53.108Z,72.57
2023-05-09T08:17:53.151Z,72.57
2023-05-09T08:18:53.072Z,72.57
2023-05-09T08:19:53.068Z,72.57
2023-05-09T08:20:53.055Z,72.57
2023-05-09T08:21:53.060Z,72.57
2023-05-09T08:22:53.052Z,72.57
2023-05-09T08:23:53.019Z,72.57
2023-05-09T08:24:53.008Z,72.57
2023-05-09T08:25:53.001Z,72.57
2023-05-09T08:26:53.113Z,72.57
2023-05-09T08:27:53.190Z,72.47
2023-05-09T08:28:52.965Z,72.47
2023-05-09T08:29:52.954Z,72.47
2023-05-09T08:30:52.944Z,72.57
2023-05-09T08:31:53.066Z,72.54
2023-05-09T08:32:52.997Z,72.47
2023-05-09T08:33:52.931Z,72.47
2023-05-09T08:34:52.918Z,72.47
2023-05-09T08:35:52.914Z,72.47
2023-05-09T08:36:52.878Z,72.47
2023-05-09T08:37:53.579Z,72.47
2023-05-09T08:38:52.886Z,72.57
2023-05-09T08:39:52.851Z,72.54
2023-05-09T08:40:52.840Z,72.54
2023-05-09T08:41:52.839Z,72.54
2023-05-09T08:42:52.981Z,72.54
2023-05-09T08:43:52.807Z,72.54
2023-05-09T08:44:52.818Z,72.54
2023-05-09T08:45:52.787Z,72.54
2023-05-09T08:46:52.813Z,72.54
2023-05-09T08:47:52.783Z,72.64
2023-05-09T08:48:52.749Z,72.64
2023-05-09T08:49:52.782Z,72.64
2023-05-09T08:50:52.756Z,72.64
2023-05-09T08:51:52.721Z,72.64
2023-05-09T08:52:52.708Z,72.64
2023-05-09T08:53:52.701Z,72.54
2023-05-09T08:54:52.706Z,72.54
2023-05-09T08:55:52.680Z,72.54
2023-05-09T08:56:52.684Z,72.54
2023-05-09T08:57:52.673Z,72.54
2023-05-09T08:58:52.766Z,72.54
2023-05-09T08:59:52.645Z,72.44
2023-05-09T09:00:52.638Z,72.44
2023-05-09T09:01:52.633Z,72.44
2023-05-09T09:02:52.716Z,72.54
2023-05-09T09:03:52.592Z,72.64
2023-05-09T09:04:52.651Z,72.64
2023-05-09T09:05:52.646Z,72.64
2023-05-09T09:06:52.584Z,72.74
2023-05-09T09:07:52.551Z,72.74
2023-05-09T09:08:52.540Z,72.64
2023-05-09T09:09:52.525Z,72.64
2023-05-09T09:10:52.524Z,72.64
2023-05-09T09:11:52.527Z,72.64
2023-05-09T09:12:52.510Z,72.74
2023-05-09T09:13:52.491Z,72.74
2023-05-09T09:14:52.694Z,72.74
2023-05-09T09:15:52.461Z,72.64
2023-05-09T09:16:52.577Z,72.74
2023-05-09T09:17:52.477Z,72.84
2023-05-09T09:18:52.431Z,72.84
2023-05-09T09:19:52.439Z,72.84
2023-05-09T09:20:52.412Z,72.84
2023-05-09T09:21:52.400Z,72.84
2023-05-09T09:22:52.414Z,72.94
2023-05-09T09:23:52.382Z,72.94
2023-05-09T09:24:52.367Z,72.94
2023-05-09T09:25:52.358Z,72.94
2023-05-09T09:26:52.374Z,72.94
2023-05-09T09:27:52.341Z,72.84
2023-05-09T09:28:52.326Z,72.84
2023-05-09T09:29:52.319Z,72.84
2023-05-09T09:30:52.428Z,72.84
2023-05-09T09:31:52.511Z,72.84
2023-05-09T09:32:52.340Z,72.84
2023-05-09T09:33:52.279Z,72.84
2023-05-09T09:34:52.297Z,72.74
2023-05-09T09:35:52.256Z,72.84
2023-05-09T09:36:52.285Z,72.84
2023-05-09T09:37:52.233Z,72.74
2023-05-09T09:38:52.218Z,72.84
2023-05-09T09:39:52.209Z,72.84
2023-05-09T09:40:52.198Z,72.84
2023-05-09T09:41:52.227Z,72.84
2023-05-09T09:42:52.181Z,72.84
2023-05-09T09:43:52.169Z,72.74
2023-05-09T09:44:52.172Z,72.74
2023-05-09T09:45:52.221Z,72.54
2023-05-09T09:46:52.283Z,72.54
2023-05-09T09:47:52.151Z,72.64
2023-05-09T09:48:52.117Z,72.74
2023-05-09T09:49:52.112Z,72.74
2023-05-09T09:50:52.096Z,72.84
2023-05-09T09:51:52.105Z,72.84
2023-05-09T09:52:52.077Z,72.84
2023-05-09T09:53:52.062Z,72.84
2023-05-09T09:54:52.115Z,72.84
2023-05-09T09:55:52.053Z,72.84
2023-05-09T09:56:52.046Z,72.84
2023-05-09T09:57:52.021Z,72.74
2023-05-09T09:58:52.025Z,72.84
2023-05-09T09:59:52.004Z,72.84
2023-05-09T10:00:52.020Z,72.84
2023-05-09T10:01:51.996Z,72.84
2023-05-09T10:02:52.181Z,72.81
2023-05-09T10:03:52.013Z,72.81
2023-05-09T10:04:51.944Z,72.81
2023-05-09T10:05:51.937Z,72.81
2023-05-09T10:06:51.920Z,72.81
2023-05-09T10:07:51.911Z,72.71
2023-05-09T10:08:51.918Z,72.71
2023-05-09T10:09:51.891Z,72.61
2023-05-09T10:10:51.878Z,72.71
2023-05-09T10:11:51.873Z,72.71
2023-05-09T10:12:51.895Z,72.71
2023-05-09T10:13:51.868Z,72.71
2023-05-09T10:14:51.836Z,72.71
2023-05-09T10:15:54.011Z,72.71
2023-05-09T10:16:52.009Z,72.61
2023-05-09T10:17:52.026Z,72.61
2023-05-09T10:18:51.958Z,72.61
2023-05-09T10:19:51.793Z,72.61
2023-05-09T10:20:51.799Z,72.61
2023-05-09T10:21:51.762Z,72.61
2023-05-09T10:22:51.753Z,72.50
2023-05-09T10:23:51.759Z,72.50
2023-05-09T10:24:51.741Z,72.50
2023-05-09T10:25:51.737Z,72.50
2023-05-09T10:26:51.718Z,72.50
2023-05-09T10:27:51.699Z,72.50
2023-05-09T10:28:51.707Z,72.50
2023-05-09T10:29:51.708Z,72.41
2023-05-09T10:30:51.691Z,72.41
2023-05-09T10:31:51.705Z,72.41
2023-05-09T10:32:51.705Z,72.41
2023-05-09T10:33:51.653Z,72.41
2023-05-09T10:34:51.748Z,72.41
2023-05-09T10:35:51.615Z,72.41
2023-05-09T10:36:51.600Z,72.41
2023-05-09T10:37:51.588Z,72.41
2023-05-09T10:38:51.599Z,72.41
2023-05-09T10:39:51.598Z,72.41
2023-05-09T10:40:51.560Z,72.41
2023-05-09T10:41:51.548Z,72.50
2023-05-09T10:42:51.536Z,72.61
2023-05-09T10:43:51.585Z,72.61
2023-05-09T10:44:51.521Z,72.50
2023-05-09T10:45:51.500Z,72.50
2023-05-09T10:46:51.563Z,72.50
2023-05-09T10:47:51.566Z,72.41
2023-05-09T10:48:51.495Z,72.50
2023-05-09T10:49:51.467Z,72.41
2023-05-09T10:50:51.587Z,72.41
2023-05-09T10:51:51.439Z,72.41
2023-05-09T10:52:51.436Z,72.41
2023-05-09T10:53:51.458Z,72.30
2023-05-09T10:54:51.408Z,72.41
2023-05-09T10:55:51.414Z,72.41
2023-05-09T10:56:51.393Z,72.41
2023-05-09T10:57:51.377Z,72.41
2023-05-09T10:58:51.388Z,72.41
2023-05-09T10:59:51.358Z,72.41
2023-05-09T11:00:51.341Z,72.41
2023-05-09T11:01:51.355Z,72.41
2023-05-09T11:02:51.357Z,72.41
2023-05-09T11:03:51.444Z,72.41
2023-05-09T11:04:51.323Z,72.41
2023-05-09T11:05:51.322Z,72.41
2023-05-09T11:06:51.824Z,72.41
2023-05-09T11:07:51.271Z,72.41
2023-05-09T11:08:51.261Z,72.41
2023-05-09T11:09:51.270Z,72.41
2023-05-09T11:10:51.241Z,72.41
2023-05-09T11:11:51.230Z,72.30
2023-05-09T11:12:51.272Z,72.30
2023-05-09T11:13:51.217Z,72.30
2023-05-09T11:14:51.215Z,72.30
2023-05-09T11:15:51.232Z,72.41
2023-05-09T11:16:51.214Z,72.41
2023-05-09T11:17:51.223Z,72.50
2023-05-09T11:18:51.169Z,72.50
2023-05-09T11:19:51.169Z,72.50
2023-05-09T11:20:51.140Z,72.50
2023-05-09T11:21:51.123Z,72.61
2023-05-09T11:22:51.239Z,72.50
2023-05-09T11:23:52.956Z,72.61
2023-05-09T11:24:51.145Z,72.61
2023-05-09T11:25:51.154Z,72.61
2023-05-09T11:26:51.080Z,72.50
2023-05-09T11:27:51.086Z,72.50
2023-05-09T11:28:51.051Z,72.61
2023-05-09T11:29:51.060Z,72.50
2023-05-09T11:30:51.050Z,72.61
2023-05-09T11:31:51.083Z,72.61
2023-05-09T11:32:51.047Z,72.61
2023-05-09T11:33:50.996Z,72.61
2023-05-09T11:34:51.011Z,72.61
2023-05-09T11:35:51.064Z,72.61
2023-05-09T11:36:50.968Z,72.61
2023-05-09T11:37:50.987Z,72.61
2023-05-09T11:38:51.007Z,72.50
2023-05-09T11:39:50.932Z,72.50
2023-05-09T11:40:50.942Z,72.41
2023-05-09T11:41:50.916Z,72.50
2023-05-09T11:42:50.908Z,72.50
2023-05-09T11:43:50.894Z,72.61
2023-05-09T11:44:50.883Z,72.61
2023-05-09T11:45:50.956Z,72.61
2023-05-09T11:46:50.866Z,72.61
2023-05-09T11:47:50.879Z,72.61
2023-05-09T11:48:50.838Z,72.61
2023-05-09T11:49:50.829Z,72.71
2023-05-09T11:50:50.838Z,72.61
2023-05-09T11:51:50.818Z,72.71
2023-05-09T11:52:50.794Z,72.61
2023-05-09T11:53:50.787Z,72.71
2023-05-09T11:54:50.910Z,72.71
2023-05-09T11:55:50.897Z,72.61
2023-05-09T11:56:50.764Z,72.61
2023-05-09T11:57:50.760Z,72.61
2023-05-09T11:58:50.737Z,72.61
2023-05-09T11:59:50.720Z,72.50
2023-05-09T12:00:50.734Z,72.50
2023-05-09T12:01:50.705Z,72.50
2023-05-09T12:02:50.782Z,72.50
2023-05-09T12:03:50.802Z,72.50
2023-05-09T12:04:50.664Z,72.50
2023-05-09T12:05:50.723Z,72.50
2023-05-09T12:06:50.647Z,72.50
2023-05-09T12:07:50.637Z,72.50
2023-05-09T12:08:50.636Z,72.50
2023-05-09T12:09:50.612Z,72.50
2023-05-09T12:10:50.778Z,72.41
2023-05-09T12:11:50.593Z,72.41
2023-05-09T12:12:50.616Z,72.41
2023-05-09T12:13:50.618Z,72.41
2023-05-09T12:14:50.568Z,72.41
2023-05-09T12:15:50.604Z,72.41
2023-05-09T12:16:50.555Z,72.41
2023-05-09T12:17:51.954Z,72.41
2023-05-09T12:18:50.526Z,72.41
2023-05-09T12:19:50.503Z,72.41
2023-05-09T12:20:50.648Z,72.41
2023-05-09T12:21:50.495Z,72.41
2023-05-09T12:22:50.478Z,72.50
2023-05-09T12:23:52.567Z,72.50
2023-05-09T12:24:50.455Z,72.61
2023-05-09T12:25:50.531Z,72.61
2023-05-09T12:26:50.627Z,72.61
2023-05-09T12:27:50.423Z,72.61
2023-05-09T12:28:50.418Z,72.61
2023-05-09T12:29:50.433Z,72.50
2023-05-09T12:30:50.388Z,72.50
2023-05-09T12:31:50.471Z,72.50
2023-05-09T12:32:50.412Z,72.61
2023-05-09T12:33:50.359Z,72.61
2023-05-09T12:34:50.348Z,72.61
2023-05-09T12:35:50.410Z,72.61
2023-05-09T12:36:50.353Z,72.61
2023-05-09T12:37:50.313Z,72.71
2023-05-09T12:38:50.303Z,72.71
2023-05-09T12:39:50.293Z,72.61
2023-05-09T12:40:50.288Z,72.61
2023-05-09T12:42:01.129Z,72.61
2023-05-09T12:42:51.405Z,72.61
2023-05-09T12:43:50.253Z,72.61
2023-05-09T12:44:50.241Z,72.50
2023-05-09T12:45:50.227Z,72.50
2023-05-09T12:46:50.283Z,72.50
2023-05-09T12:47:50.262Z,72.61
2023-05-09T12:48:50.226Z,72.61
2023-05-09T12:49:50.186Z,72.61
2023-05-09T12:50:50.184Z,72.50
2023-05-09T12:51:50.174Z,72.47
2023-05-09T12:52:58.914Z,72.37
2023-05-09T12:53:51.144Z,72.41
2023-05-09T12:54:50.136Z,72.41
2023-05-09T12:55:50.126Z,72.30
2023-05-09T12:56:50.110Z,72.30
2023-05-09T12:57:50.124Z,72.30
2023-05-09T12:58:50.212Z,72.30
2023-05-09T12:59:50.093Z,72.30
2023-05-09T13:00:50.175Z,72.41
2023-05-09T13:01:50.129Z,72.41
2023-05-09T13:02:50.117Z,72.41
2023-05-09T13:03:50.037Z,72.41
2023-05-09T13:04:50.048Z,72.41
2023-05-09T13:05:50.020Z,72.41
2023-05-09T13:06:50.014Z,72.41
2023-05-09T13:07:50.035Z,72.41
2023-05-09T13:08:49.989Z,72.41
2023-05-09T13:09:49.994Z,72.41
2023-05-09T13:10:51.066Z,72.41
2023-05-09T13:11:49.954Z,72.41
2023-05-09T13:12:49.984Z,72.41
2023-05-09T13:13:49.934Z,72.41
2023-05-09T13:14:50.106Z,72.41
2023-05-09T13:15:49.933Z,72.37
2023-05-09T13:16:49.967Z,72.37
2023-05-09T13:17:49.930Z,72.37
2023-05-09T13:18:49.894Z,72.37
2023-05-09T13:19:49.897Z,72.37
2023-05-09T13:20:49.861Z,72.37
2023-05-09T13:21:49.851Z,72.27
2023-05-09T13:22:49.850Z,72.27
2023-05-09T13:23:49.837Z,72.37
2023-05-09T13:24:49.846Z,72.37
2023-05-09T13:25:49.806Z,72.37
2023-05-09T13:26:49.796Z,72.47
2023-05-09T13:27:49.782Z,72.47
2023-05-09T13:28:49.778Z,72.37
2023-05-09T13:29:49.767Z,72.37
2023-05-09T13:30:49.954Z,72.37
2023-05-09T13:31:49.743Z,72.27
2023-05-09T13:32:49.773Z,72.27
2023-05-09T13:33:51.752Z,72.17
2023-05-09T13:34:49.713Z,72.17
2023-05-09T13:35:49.730Z,72.07
2023-05-09T13:36:49.713Z,72.07
2023-05-09T13:37:49.684Z,71.97
2023-05-09T13:38:49.676Z,71.97
2023-05-09T13:39:49.657Z,72.07
2023-05-09T13:40:49.647Z,72.17
2023-05-09T13:41:49.657Z,72.07
2023-05-09T13:42:49.628Z,72.17
2023-05-09T13:43:49.619Z,72.07
2023-05-09T13:44:49.626Z,72.07
2023-05-09T13:45:49.651Z,72.03
2023-05-09T13:46:49.791Z,72.03
2023-05-09T13:47:49.590Z,72.03
2023-05-09T13:48:49.568Z,71.94
2023-05-09T13:49:49.555Z,71.94
2023-05-09T13:50:49.548Z,71.94
2023-05-09T13:51:49.552Z,71.94
2023-05-09T13:52:49.544Z,71.94
2023-05-09T13:53:49.511Z,71.94
2023-05-09T13:54:49.521Z,72.03
2023-05-09T13:55:49.502Z,71.94
2023-05-09T13:56:49.502Z,71.94
2023-05-09T13:57:49.468Z,71.83
2023-05-09T13:58:49.460Z,71.83
2023-05-09T13:59:49.447Z,71.83
2023-05-09T14:00:49.440Z,71.83
2023-05-09T14:01:49.494Z,71.94
2023-05-09T14:02:49.575Z,71.94
2023-05-09T14:03:49.509Z,71.94
2023-05-09T14:04:49.398Z,71.94
2023-05-09T14:05:49.398Z,71.94
2023-05-09T14:06:49.372Z,72.03